Time;durP1;ratioP1;P1;durP2;ratioP2;P2;SDS_P1;SDS_P2;PMS_P1;PMS_P2;Temp;Humidity;BMP_temperature;BMP_pressure;BME280_temperature;BME280_humidity;BME280_pressure;Samples;Min_cycle;Max_cycle;Signal;HPM_P1;HPM_P2
2024/01/08 00:00:40;;;;;;;7.13;4.47;;;;;;;-0.84;71.75;102937.59;5085595;28;20056;-76
2024/01/08 00:03:06;;;;;;;6.65;5.05;;;;;;;-0.87;71.52;102932.28;5078276;28;20128;-76
2024/01/08 00:05:31;;;;;;;7.43;5.40;;;;;;;-0.80;71.82;102931.69;5078382;28;20428;-76
2024/01/08 00:07:56;;;;;;;7.53;5.47;;;;;;;-0.83;71.24;102934.19;5087273;28;20043;-76
2024/01/08 00:10:22;;;;;;;9.73;5.78;;;;;;;-0.80;70.84;102931.69;5079203;28;20048;-76
2024/01/08 00:12:47;;;;;;;8.00;5.35;;;;;;;-0.74;72.44;102929.38;5086973;28;20031;-76
2024/01/08 00:15:13;;;;;;;10.00;5.68;;;;;;;-0.72;71.75;102937.22;5081182;28;20456;-76
2024/01/08 00:17:38;;;;;;;11.75;7.90;;;;;;;-0.74;70.59;102928.47;5076237;28;20333;-76
2024/01/08 00:20:04;;;;;;;9.60;6.65;;;;;;;-0.78;70.28;102938.72;5080184;28;20415;-76
2024/01/08 00:22:29;;;;;;;11.60;7.07;;;;;;;-0.83;69.72;102934.19;5079553;28;20514;-76
2024/01/08 00:24:55;;;;;;;8.13;5.93;;;;;;;-0.79;70.51;102938.69;5081664;28;20498;-76
2024/01/08 00:27:20;;;;;;;11.63;6.18;;;;;;;-0.74;71.29;102934.56;5076594;28;20167;-76
2024/01/08 00:29:45;;;;;;;9.73;6.05;;;;;;;-0.73;70.46;102931.13;5077416;28;20105;-76
2024/01/08 00:32:11;;;;;;;10.65;7.10;;;;;;;-0.77;70.69;102934.44;5075642;28;20118;-76
2024/01/08 00:34:36;;;;;;;14.10;7.53;;;;;;;-0.73;71.42;102930.25;5063318;28;20035;-76
2024/01/08 00:37:02;;;;;;;14.93;7.25;;;;;;;-0.70;70.65;102939.06;5083310;28;20024;-76
2024/01/08 00:39:27;;;;;;;15.75;8.07;;;;;;;-0.72;70.16;102932.88;5080147;28;20046;-77
2024/01/08 00:41:53;;;;;;;11.48;8.20;;;;;;;-0.72;70.55;102939.81;5074770;28;20029;-76
2024/01/08 00:44:18;;;;;;;12.50;7.55;;;;;;;-0.73;70.84;102938.03;5080083;28;20032;-76
2024/01/08 00:46:44;;;;;;;14.55;8.52;;;;;;;-0.74;71.23;102934.56;5078289;28;20028;-76
2024/01/08 00:49:09;;;;;;;15.70;8.50;;;;;;;-0.70;71.23;102933.84;5081653;28;20043;-77
2024/01/08 00:51:34;;;;;;;17.10;9.63;;;;;;;-0.63;71.86;102934.97;5081231;28;20024;-76
2024/01/08 00:54:00;;;;;;;21.38;11.25;;;;;;;-0.66;70.96;102932.25;5079297;28;20024;-77
2024/01/08 00:56:25;;;;;;;27.48;13.48;;;;;;;-0.65;70.88;102940.13;5075035;28;20036;-76
2024/01/08 00:58:50;;;;;;;26.92;13.48;;;;;;;-0.65;70.45;102937.53;5073797;28;20024;-77
2024/01/08 01:01:16;;;;;;;28.75;13.68;;;;;;;-0.70;70.68;102935.53;5054761;28;20031;-76
2024/01/08 01:03:41;;;;;;;26.05;14.25;;;;;;;-0.74;69.65;102939.75;5076028;28;20032;-76
2024/01/08 01:06:07;;;;;;;31.42;15.20;;;;;;;-0.68;70.54;102940.00;5076717;28;20025;-76
2024/01/08 01:08:32;;;;;;;26.73;13.93;;;;;;;-0.65;70.99;102941.84;5059338;28;20061;-76
2024/01/08 01:10:58;;;;;;;30.08;14.35;;;;;;;-0.68;71.62;102937.38;5076282;28;20056;-76
2024/01/08 01:13:23;;;;;;;27.35;14.20;;;;;;;-0.66;70.93;102942.63;5076229;28;20016;-77
2024/01/08 01:15:49;;;;;;;22.70;13.05;;;;;;;-0.66;70.67;102948.72;5060145;28;20476;-77
2024/01/08 01:18:14;;;;;;;22.90;11.73;;;;;;;-0.68;70.99;102952.97;5072480;28;20118;-77
2024/01/08 01:20:40;;;;;;;19.67;10.95;;;;;;;-0.72;70.06;102942.41;5077285;28;20092;-77
2024/01/08 01:23:05;;;;;;;21.08;10.35;;;;;;;-0.72;69.71;102943.28;5064620;28;20059;-77
2024/01/08 01:25:30;;;;;;;15.48;9.73;;;;;;;-0.69;70.67;102948.59;5077700;28;20024;-77
2024/01/08 01:27:55;;;;;;;11.38;7.53;;;;;;;-0.67;69.36;102949.53;5077686;28;20473;-77
2024/01/08 01:30:21;;;;;;;13.68;8.60;;;;;;;-0.71;69.99;102939.84;5073549;28;20460;-77
2024/01/08 01:32:46;;;;;;;11.88;8.18;;;;;;;-0.73;69.77;102941.50;5058299;28;20502;-77
2024/01/08 01:35:12;;;;;;;11.93;7.65;;;;;;;-0.74;69.80;102942.34;5078489;28;20396;-77
2024/01/08 01:37:38;;;;;;;10.60;7.63;;;;;;;-0.74;69.32;102941.47;5059366;28;20068;-77
2024/01/08 01:40:04;;;;;;;16.05;7.57;;;;;;;-0.81;69.02;102940.31;5060931;28;20025;-77
2024/01/08 01:42:30;;;;;;;9.77;7.00;;;;;;;-0.88;68.79;102939.19;5062786;28;20024;-77
2024/01/08 01:44:55;;;;;;;9.68;6.55;;;;;;;-0.90;69.25;102939.94;5078226;28;20031;-78
2024/01/08 01:47:22;;;;;;;10.63;6.95;;;;;;;-0.91;69.51;102946.84;5074579;28;20039;-79
2024/01/08 01:49:47;;;;;;;10.23;6.78;;;;;;;-0.94;69.26;102944.13;5080701;28;20084;-79
2024/01/08 01:52:13;;;;;;;14.18;7.40;;;;;;;-0.95;69.39;102934.56;5077063;28;20029;-79
2024/01/08 01:54:39;;;;;;;10.15;6.50;;;;;;;-0.94;69.20;102949.31;5075944;28;20028;-79
2024/01/08 01:57:05;;;;;;;11.48;6.88;;;;;;;-0.93;69.32;102950.19;5075950;28;20424;-78
2024/01/08 01:59:33;;;;;;;10.60;7.35;;;;;;;-0.92;69.68;102950.28;5079685;28;20403;-79
2024/01/08 02:01:59;;;;;;;12.77;7.50;;;;;;;-0.89;69.68;102950.38;5079454;28;20055;-78
2024/01/08 02:04:28;;;;;;;9.75;6.68;;;;;;;-0.86;70.09;102949.63;5074647;28;20485;-79
2024/01/08 02:06:56;;;;;;;11.57;7.60;;;;;;;-0.82;69.88;102956.72;5072075;28;20024;-79
2024/01/08 02:09:22;;;;;;;11.50;7.07;;;;;;;-0.84;69.80;102959.28;5077511;28;20048;-79
2024/01/08 02:11:48;;;;;;;10.18;6.05;;;;;;;-0.80;69.53;102960.25;5078892;28;20167;-79
2024/01/08 02:14:14;;;;;;;9.15;6.25;;;;;;;-0.77;70.23;102958.69;5082742;28;20063;-79
2024/01/08 02:16:39;;;;;;;9.20;6.10;;;;;;;-0.78;70.20;102958.63;5059567;28;20027;-78
2024/01/08 02:19:05;;;;;;;5.32;4.78;;;;;;;-0.87;70.48;102964.31;5061767;28;20040;-78
2024/01/08 02:21:30;;;;;;;6.70;5.30;;;;;;;-0.94;71.11;102961.41;5077829;28;20062;-79
2024/01/08 02:23:56;;;;;;;7.72;5.22;;;;;;;-0.97;70.96;102963.91;5056770;28;20722;-79
2024/01/08 02:26:21;;;;;;;6.97;4.68;;;;;;;-1.07;71.54;102960.03;5073360;28;20351;-78
2024/01/08 02:28:46;;;;;;;5.45;4.63;;;;;;;-1.23;71.79;102958.50;5073552;28;20151;-79
2024/01/08 02:31:12;;;;;;;6.25;4.40;;;;;;;-1.31;72.67;102959.88;5054696;28;20525;-78
2024/01/08 02:33:37;;;;;;;5.28;4.40;;;;;;;-1.42;71.74;102959.41;5074336;28;20035;-78
2024/01/08 02:36:03;;;;;;;7.68;4.80;;;;;;;-1.44;72.28;102967.97;5073802;28;20505;-79
2024/01/08 02:38:28;;;;;;;7.25;4.95;;;;;;;-1.46;72.79;102967.88;5074596;28;20118;-79
2024/01/08 02:40:53;;;;;;;5.72;4.18;;;;;;;-1.49;72.31;102966.84;5059581;28;20031;-78
2024/01/08 02:43:19;;;;;;;8.35;4.72;;;;;;;-1.56;72.75;102971.78;5074294;28;20032;-78
2024/01/08 02:45:44;;;;;;;6.70;3.83;;;;;;;-1.59;72.48;102974.22;5056744;28;20024;-78
2024/01/08 02:48:10;;;;;;;8.65;3.90;;;;;;;-1.64;72.14;102980.94;5071232;28;20028;-78
2024/01/08 02:50:35;;;;;;;6.43;4.72;;;;;;;-1.69;73.30;102976.38;5054648;28;20028;-78
2024/01/08 02:53:00;;;;;;;6.60;3.92;;;;;;;-1.75;72.17;102976.97;5077190;28;20039;-77
2024/01/08 02:55:26;;;;;;;5.80;4.13;;;;;;;-1.76;73.22;102979.53;5076694;28;20020;-78
2024/01/08 02:57:52;;;;;;;7.15;4.57;;;;;;;-1.77;73.33;102978.63;5060859;28;20086;-78
2024/01/08 03:00:17;;;;;;;5.32;3.72;;;;;;;-1.80;73.15;102983.69;5075924;28;20067;-78
2024/01/08 03:02:42;;;;;;;6.90;4.50;;;;;;;-1.85;73.89;102983.47;5073884;28;20032;-78
2024/01/08 03:05:08;;;;;;;6.57;4.13;;;;;;;-1.85;73.77;102983.47;5054947;28;20037;-78
2024/01/08 03:07:33;;;;;;;6.53;4.28;;;;;;;-1.88;73.20;102985.91;5076328;28;20475;-78
2024/01/08 03:09:59;;;;;;;7.53;4.63;;;;;;;-1.88;73.98;102979.84;5060389;28;20404;-78
2024/01/08 03:12:25;;;;;;;8.55;4.97;;;;;;;-1.84;73.86;102986.94;5083183;28;20028;-77
2024/01/08 03:14:51;;;;;;;6.78;4.00;;;;;;;-1.82;73.00;102978.44;5083308;28;20274;-77
2024/01/08 03:17:16;;;;;;;6.00;4.60;;;;;;;-1.83;73.09;102970.56;5078477;28;20043;-78
2024/01/08 03:19:42;;;;;;;8.63;4.93;;;;;;;-1.78;73.19;102979.44;5079692;28;20480;-78
2024/01/08 03:22:07;;;;;;;6.82;4.60;;;;;;;-1.74;74.00;102976.16;5064716;28;20029;-78
2024/01/08 03:24:33;;;;;;;9.13;4.95;;;;;;;-1.71;74.24;102971.13;5080512;28;20513;-78
2024/01/08 03:26:58;;;;;;;6.95;4.68;;;;;;;-1.63;73.28;102977.53;5079741;28;20032;-76
2024/01/08 03:29:24;;;;;;;7.03;4.10;;;;;;;-1.55;73.00;102986.53;5079337;28;20103;-77
2024/01/08 03:31:49;;;;;;;6.78;4.13;;;;;;;-1.50;73.37;102983.25;5088006;28;20051;-77
2024/01/08 03:34:15;;;;;;;7.22;4.75;;;;;;;-1.45;73.74;102986.94;5069155;28;20109;-77
2024/01/08 03:36:50;;;;;;;8.05;4.60;;;;;;;-1.39;73.80;102987.22;5085124;28;20032;-77
2024/01/08 03:39:17;;;;;;;7.85;4.57;;;;;;;-1.35;73.44;102986.53;5089710;28;20046;-77
2024/01/08 03:41:43;;;;;;;7.63;4.30;;;;;;;-1.35;73.37;102983.94;5081190;28;20472;-77
2024/01/08 03:44:09;;;;;;;7.15;4.47;;;;;;;-1.31;72.94;102988.41;5080088;28;20069;-77
2024/01/08 03:46:36;;;;;;;8.05;4.28;;;;;;;-1.38;72.99;102992.47;5086753;28;20035;-77
2024/01/08 03:49:02;;;;;;;5.43;4.00;;;;;;;-1.38;72.51;102983.78;5090727;28;20028;-77
2024/01/08 03:51:28;;;;;;;7.82;4.95;;;;;;;-1.40;73.55;102993.19;5087812;28;20491;-77
2024/01/08 03:53:53;;;;;;;7.63;4.70;;;;;;;-1.37;73.02;102985.56;5089214;28;20038;-77
2024/01/08 03:56:19;;;;;;;7.90;4.55;;;;;;;-1.35;73.47;102982.22;5073676;28;20040;-77
2024/01/08 03:58:44;;;;;;;7.30;4.50;;;;;;;-1.30;73.79;102991.09;5086342;28;20059;-77
2024/01/08 04:01:11;;;;;;;7.10;4.10;;;;;;;-1.30;74.56;102977.22;5091268;28;20123;-77
2024/01/08 04:03:37;;;;;;;7.00;3.58;;;;;;;-1.23;73.35;102986.16;5088882;28;20097;-77
2024/01/08 04:06:02;;;;;;;6.20;4.15;;;;;;;-1.23;73.43;102979.25;5081673;28;20074;-77
2024/01/08 04:08:28;;;;;;;6.88;4.57;;;;;;;-1.19;73.38;102986.34;5075058;28;20035;-78
2024/01/08 04:10:53;;;;;;;7.53;4.32;;;;;;;-1.24;72.60;102985.28;5089154;28;20123;-77
2024/01/08 04:13:18;;;;;;;6.90;4.00;;;;;;;-1.29;72.46;102982.47;5067587;28;20058;-77
2024/01/08 04:15:44;;;;;;;4.65;3.33;;;;;;;-1.30;72.59;102979.81;5061645;28;20043;-77
2024/01/08 04:18:09;;;;;;;7.95;4.32;;;;;;;-1.32;72.62;102978.84;5077880;28;20574;-77
2024/01/08 04:20:34;;;;;;;7.82;4.40;;;;;;;-1.28;73.39;102970.38;5066121;28;20261;-77
2024/01/08 04:23:00;;;;;;;6.25;4.50;;;;;;;-1.25;72.89;102985.22;5089437;28;20058;-78
2024/01/08 04:25:25;;;;;;;8.13;4.38;;;;;;;-1.26;72.58;102979.09;5083517;28;20422;-78
2024/01/08 04:27:50;;;;;;;7.30;4.47;;;;;;;-1.23;73.00;102984.44;5083018;28;20028;-77
2024/01/08 04:30:16;;;;;;;7.28;4.28;;;;;;;-1.20;73.19;102978.50;5078840;28;20032;-77
2024/01/08 04:32:41;;;;;;;6.13;4.05;;;;;;;-1.22;73.19;102993.09;5060303;28;20070;-77
2024/01/08 04:35:07;;;;;;;7.90;4.65;;;;;;;-1.23;72.85;102979.25;5068697;28;20028;-77
2024/01/08 04:37:33;;;;;;;5.28;4.18;;;;;;;-1.20;72.75;102989.78;5086603;28;20028;-77
2024/01/08 04:39:59;;;;;;;7.10;4.55;;;;;;;-1.17;73.00;102989.00;5062006;28;20077;-77
2024/01/08 04:42:24;;;;;;;9.25;4.70;;;;;;;-1.12;72.83;102993.59;5060642;28;20024;-78
2024/01/08 04:44:49;;;;;;;7.00;4.32;;;;;;;-1.17;72.48;102979.50;5084350;28;20019;-77
2024/01/08 04:47:15;;;;;;;8.00;4.65;;;;;;;-1.19;73.08;102975.97;5081156;28;20388;-77
2024/01/08 04:49:40;;;;;;;6.78;3.85;;;;;;;-1.15;72.93;102980.47;5083909;28;20027;-77
2024/01/08 04:52:06;;;;;;;7.90;4.70;;;;;;;-1.18;72.74;102984.63;5088343;28;20046;-77
2024/01/08 04:54:31;;;;;;;5.30;3.67;;;;;;;-1.12;72.25;102980.63;5071852;28;20027;-77
2024/01/08 04:56:57;;;;;;;4.93;3.83;;;;;;;-1.10;72.46;102985.84;5081079;28;20797;-78
2024/01/08 04:59:23;;;;;;;7.63;3.97;;;;;;;-0.91;72.31;102987.50;5077125;28;20024;-78
2024/01/08 05:01:50;;;;;;;7.05;4.20;;;;;;;-0.86;72.49;102991.19;5082881;28;20024;-77
2024/01/08 05:04:16;;;;;;;6.38;3.35;;;;;;;-0.84;71.90;102984.31;5084059;28;20020;-77
2024/01/08 05:06:42;;;;;;;6.70;4.20;;;;;;;-0.85;72.04;102987.75;5082381;28;20036;-77
2024/01/08 05:09:08;;;;;;;7.78;4.38;;;;;;;-0.86;72.49;102984.28;5079259;28;20052;-77
2024/01/08 05:11:34;;;;;;;5.95;4.20;;;;;;;-0.85;72.59;102985.16;5084889;28;20039;-77
2024/01/08 05:13:59;;;;;;;8.25;4.15;;;;;;;-0.85;72.47;102982.56;5084650;28;20024;-77
2024/01/08 05:16:25;;;;;;;8.30;5.03;;;;;;;-1.13;73.92;102989.19;5083154;28;20020;-77
2024/01/08 05:18:50;;;;;;;8.45;5.05;;;;;;;-1.17;75.17;102983.81;5064982;28;20061;-77
2024/01/08 05:21:15;;;;;;;7.43;4.60;;;;;;;-1.17;75.61;102986.41;5089596;28;20376;-77
2024/01/08 05:23:41;;;;;;;9.80;5.32;;;;;;;-1.17;75.11;102984.69;5063978;28;20166;-77
2024/01/08 05:26:06;;;;;;;7.78;5.05;;;;;;;-1.13;75.48;102985.72;5088013;28;20028;-78
2024/01/08 05:28:32;;;;;;;7.80;5.00;;;;;;;-1.10;76.12;102991.03;5069729;28;20031;-78
2024/01/08 05:30:57;;;;;;;9.60;4.95;;;;;;;-1.09;75.85;102983.31;5084408;28;20023;-78
2024/01/08 05:33:23;;;;;;;6.85;4.35;;;;;;;-1.12;75.17;102983.22;5066628;28;20070;-78
2024/01/08 05:35:48;;;;;;;9.02;4.90;;;;;;;-1.15;75.87;102980.47;5085243;28;20024;-77
2024/01/08 05:38:14;;;;;;;8.35;5.25;;;;;;;-1.15;75.65;102974.41;5086851;28;20024;-78
2024/01/08 05:40:39;;;;;;;7.90;4.88;;;;;;;-1.16;75.84;102975.22;5082622;28;20024;-77
2024/01/08 05:43:05;;;;;;;8.05;4.80;;;;;;;-1.17;76.03;102978.63;5076344;28;20120;-77
2024/01/08 05:45:31;;;;;;;7.10;5.00;;;;;;;-1.15;76.34;102977.00;5084035;28;20063;-78
2024/01/08 05:47:56;;;;;;;9.40;5.28;;;;;;;-1.14;76.41;102974.44;5081031;28;20026;-78
2024/01/08 05:50:25;;;;;;;7.90;5.07;;;;;;;-1.11;76.25;102986.69;5067017;28;20012;-78
2024/01/08 05:52:52;;;;;;;11.93;5.35;;;;;;;-1.14;75.98;102977.03;5085447;28;20112;-77
2024/01/08 05:55:18;;;;;;;11.25;5.82;;;;;;;-1.10;75.74;102978.94;5066035;28;20024;-77
2024/01/08 05:57:43;;;;;;;9.82;6.15;;;;;;;-1.12;76.49;102975.41;5066469;28;20472;-78
2024/01/08 06:00:09;;;;;;;9.07;5.20;;;;;;;-1.10;76.68;102978.06;5082832;28;20068;-78
2024/01/08 06:02:35;;;;;;;9.60;5.47;;;;;;;-1.08;76.61;102977.28;5067053;28;20464;-78
2024/01/08 06:05:00;;;;;;;9.68;5.68;;;;;;;-1.07;76.44;102970.41;5081329;28;20016;-78
2024/01/08 06:07:25;;;;;;;8.13;5.13;;;;;;;-1.05;76.63;102974.84;5085041;28;20032;-77
2024/01/08 06:09:51;;;;;;;10.13;5.50;;;;;;;-1.05;76.58;102977.44;5084480;28;20061;-77
2024/01/08 06:12:16;;;;;;;9.10;6.07;;;;;;;-1.08;76.01;102979.00;5082868;28;20119;-77
2024/01/08 06:14:42;;;;;;;8.48;5.57;;;;;;;-1.09;76.32;102966.84;5081470;28;20062;-78
2024/01/08 06:17:08;;;;;;;11.30;6.53;;;;;;;-0.71;74.98;102971.03;5084035;28;20029;-78
2024/01/08 06:19:34;;;;;;;10.05;6.10;;;;;;;-0.56;74.81;102971.66;5071053;28;20430;-78
2024/01/08 06:22:00;;;;;;;9.85;5.72;;;;;;;-0.44;74.37;102965.16;5067047;28;20032;-78
2024/01/08 06:24:25;;;;;;;11.25;5.80;;;;;;;-0.38;74.00;102973.19;5084202;28;20154;-78
2024/01/08 06:26:50;;;;;;;8.85;5.70;;;;;;;-0.29;74.11;102973.53;5088539;28;20024;-77
2024/01/08 06:29:16;;;;;;;11.75;6.32;;;;;;;-0.27;74.26;102966.72;5088297;28;21068;-76
2024/01/08 06:31:42;;;;;;;13.77;6.95;;;;;;;-0.43;73.50;102967.81;5081725;28;20036;-76
2024/01/08 06:34:08;;;;;;;12.98;6.63;;;;;;;-0.19;73.16;102970.47;5069045;28;20035;-76
2024/01/08 06:36:34;;;;;;;11.13;6.38;;;;;;;-0.88;75.98;102972.06;5085602;28;20430;-76
2024/01/08 06:39:00;;;;;;;10.18;6.30;;;;;;;-0.91;76.04;102977.13;5085130;28;20252;-77
2024/01/08 06:41:26;;;;;;;10.88;5.18;;;;;;;-0.92;76.48;102967.56;5087797;28;20081;-77
2024/01/08 06:43:51;;;;;;;9.80;6.82;;;;;;;-0.95;76.60;102965.72;5066828;28;20024;-77
2024/01/08 06:46:17;;;;;;;8.40;5.50;;;;;;;-0.94;76.66;102970.06;5084900;28;20017;-77
2024/01/08 06:48:43;;;;;;;13.13;6.68;;;;;;;-0.91;77.24;102972.81;5085932;28;20110;-77
2024/01/08 06:51:08;;;;;;;10.73;6.03;;;;;;;-0.88;77.37;102966.88;5089266;28;20334;-76
2024/01/08 06:53:34;;;;;;;15.77;6.57;;;;;;;-0.90;76.58;102963.31;5088977;28;20035;-77
2024/01/08 06:55:59;;;;;;;12.15;6.20;;;;;;;-0.90;77.42;102964.19;5089021;28;20117;-77
2024/01/08 06:58:25;;;;;;;10.80;5.93;;;;;;;-0.90;77.47;102963.31;5093081;28;20451;-77
2024/01/08 07:00:50;;;;;;;13.20;6.55;;;;;;;-0.85;77.41;102966.97;5088343;28;20035;-77
2024/01/08 07:03:17;;;;;;;12.57;6.65;;;;;;;-0.88;76.85;102967.75;5089214;28;20079;-77
2024/01/08 07:05:43;;;;;;;11.05;6.75;;;;;;;-0.87;77.29;102976.44;5072098;28;20115;-76
2024/01/08 07:08:09;;;;;;;9.80;5.85;;;;;;;-0.86;77.13;102978.19;5086696;28;20024;-78
2024/01/08 07:10:34;;;;;;;8.95;5.82;;;;;;;-0.83;77.48;102980.94;5090827;28;20040;-77
2024/01/08 07:13:01;;;;;;;10.60;7.00;;;;;;;-0.82;77.34;102980.09;5071824;28;20067;-77
2024/01/08 07:15:39;;;;;;;9.75;5.97;;;;;;;-0.80;77.45;102991.41;5089961;28;20016;-77
2024/01/08 07:18:05;;;;;;;11.18;6.88;;;;;;;-0.79;77.83;102990.63;5086684;28;20059;-77
2024/01/08 07:20:30;;;;;;;10.02;6.55;;;;;;;-0.79;77.07;102990.63;5089980;28;20047;-76
2024/01/08 07:22:56;;;;;;;10.48;5.97;;;;;;;-0.77;77.23;102986.38;5070534;28;20101;-76
2024/01/08 07:25:22;;;;;;;10.75;6.50;;;;;;;-0.75;77.38;102994.22;5085700;28;20024;-77
2024/01/08 07:27:47;;;;;;;8.90;5.88;;;;;;;-0.72;77.55;102996.94;5088993;28;20040;-77
2024/01/08 07:30:13;;;;;;;10.57;6.80;;;;;;;-0.72;76.93;102999.53;5089498;28;20471;-77
2024/01/08 07:32:39;;;;;;;11.15;6.50;;;;;;;-0.70;77.17;102996.19;5089672;28;20024;-76
2024/01/08 07:35:04;;;;;;;11.35;6.68;;;;;;;-0.70;77.08;102998.78;5086245;28;20052;-77
2024/01/08 07:37:30;;;;;;;11.52;6.85;;;;;;;-0.65;77.30;103002.47;5086701;28;20043;-79
2024/01/08 07:39:55;;;;;;;10.98;6.78;;;;;;;-0.64;76.95;102992.94;5082114;28;20054;-79
2024/01/08 07:42:21;;;;;;;11.73;6.38;;;;;;;-0.61;77.11;103004.31;5069993;28;20035;-78
2024/01/08 07:44:46;;;;;;;12.93;6.72;;;;;;;-0.61;76.79;103004.31;5089868;28;20388;-79
2024/01/08 07:47:11;;;;;;;10.27;6.15;;;;;;;-0.61;77.18;103009.53;5072287;28;20020;-79
2024/01/08 07:49:37;;;;;;;10.40;6.15;;;;;;;-0.62;76.47;103012.94;5087388;28;20053;-78
2024/01/08 07:52:02;;;;;;;10.63;6.22;;;;;;;-0.59;76.67;103017.41;5087386;28;20089;-78
2024/01/08 07:54:27;;;;;;;12.43;6.60;;;;;;;-0.60;76.04;103013.91;5078833;28;20078;-79
2024/01/08 07:56:53;;;;;;;10.82;6.70;;;;;;;-0.62;76.27;103012.06;5083732;28;20026;-79
2024/01/08 07:59:18;;;;;;;8.88;5.85;;;;;;;-0.61;76.31;103004.31;5064882;28;20111;-78
2024/01/08 08:01:43;;;;;;;9.70;5.82;;;;;;;-0.61;76.38;103004.31;5085353;28;20027;-79
2024/01/08 08:04:09;;;;;;;9.98;5.63;;;;;;;-0.58;76.07;103009.66;5084572;28;20055;-79
2024/01/08 08:06:37;;;;;;;11.20;5.80;;;;;;;-0.60;75.38;103005.25;5086407;28;20027;-79
2024/01/08 08:09:03;;;;;;;10.23;6.45;;;;;;;-0.58;75.62;103011.38;5076629;28;20101;-79
2024/01/08 08:11:28;;;;;;;11.18;5.85;;;;;;;-0.56;75.88;103010.63;5062193;28;20439;-79
2024/01/08 08:13:53;;;;;;;10.38;6.22;;;;;;;-0.27;74.85;103011.78;5065414;28;20456;-80
2024/01/08 08:16:20;;;;;;;10.43;6.22;;;;;;;-0.22;74.45;103011.06;5061050;28;20021;-80
2024/01/08 08:18:45;;;;;;;7.68;5.43;;;;;;;-0.22;74.32;103016.28;5079986;28;20506;-79
2024/01/08 08:21:11;;;;;;;10.40;6.30;;;;;;;-0.22;74.59;103013.66;5083202;28;20015;-79
2024/01/08 08:23:36;;;;;;;10.77;6.45;;;;;;;-0.23;73.94;103015.38;5061698;28;20118;-79
2024/01/08 08:26:02;;;;;;;8.38;5.90;;;;;;;-0.21;74.17;103018.03;5079315;28;20024;-79
2024/01/08 08:28:29;;;;;;;10.98;5.82;;;;;;;-0.16;74.16;103021.69;5079031;28;20036;-79
2024/01/08 08:30:54;;;;;;;9.00;5.93;;;;;;;-0.18;74.04;103019.03;5078843;28;20059;-79
2024/01/08 08:33:20;;;;;;;8.13;5.30;;;;;;;-0.16;73.84;103019.09;5084211;28;20564;-79
2024/01/08 08:35:45;;;;;;;6.85;5.45;;;;;;;-0.22;73.88;103017.16;5065395;28;20039;-79
2024/01/08 08:38:10;;;;;;;8.70;6.05;;;;;;;-0.19;73.68;103019.84;5080184;28;20042;-79
2024/01/08 08:40:36;;;;;;;9.27;6.10;;;;;;;-0.18;74.11;103023.38;5082570;28;20203;-79
2024/01/08 08:43:01;;;;;;;9.40;5.78;;;;;;;-0.16;74.10;103026.91;5085486;28;20024;-79
2024/01/08 08:45:28;;;;;;;10.00;5.72;;;;;;;-0.12;74.92;103026.19;5086878;28;20081;-79
2024/01/08 08:47:53;;;;;;;7.40;5.32;;;;;;;-0.12;74.79;103023.59;5069772;28;20570;-77
2024/01/08 08:50:19;;;;;;;8.57;5.57;;;;;;;-0.16;74.50;103034.69;5087940;28;20108;-78
2024/01/08 08:52:44;;;;;;;9.45;5.80;;;;;;;-0.13;74.88;103038.31;5087580;28;20031;-78
2024/01/08 08:55:10;;;;;;;8.35;5.15;;;;;;;-0.13;75.00;103032.22;5088869;28;20416;-78
2024/01/08 08:57:36;;;;;;;7.25;4.40;;;;;;;-0.12;75.58;103034.88;5084132;28;20024;-77
2024/01/08 09:00:03;;;;;;;9.05;5.30;;;;;;;-0.10;75.12;103029.72;5065820;28;20555;-78
2024/01/08 09:02:28;;;;;;;6.75;5.18;;;;;;;-0.14;74.52;103036.53;5068289;28;20119;-78
2024/01/08 09:04:53;;;;;;;8.95;5.13;;;;;;;-0.13;75.56;103030.50;5064349;28;20191;-78
2024/01/08 09:07:22;;;;;;;8.25;5.93;;;;;;;-0.12;75.92;103037.47;5084561;28;20348;-77
2024/01/08 09:09:49;;;;;;;8.50;5.05;;;;;;;-0.12;75.12;103034.00;5089361;28;20513;-77
2024/01/08 09:12:14;;;;;;;7.68;5.00;;;;;;;-0.09;75.80;103034.13;5069091;28;20031;-78
2024/01/08 09:14:41;;;;;;;7.53;5.38;;;;;;;-0.09;75.17;103037.59;5088033;28;20024;-77
2024/01/08 09:17:06;;;;;;;8.40;5.05;;;;;;;-0.11;74.78;103043.56;5089079;28;20024;-78
2024/01/08 09:19:32;;;;;;;7.53;5.38;;;;;;;-0.09;75.11;103044.53;5087114;28;20086;-77
2024/01/08 09:21:57;;;;;;;8.98;5.38;;;;;;;-0.09;75.44;103042.81;5067688;28;20016;-77
2024/01/08 09:24:23;;;;;;;8.43;5.35;;;;;;;-0.06;74.74;103052.41;5083716;28;20667;-78
2024/01/08 09:26:48;;;;;;;8.43;5.38;;;;;;;-0.07;74.79;103054.13;5084483;28;20052;-77
2024/01/08 09:29:14;;;;;;;9.00;5.25;;;;;;;-0.12;75.13;103040.06;5084065;28;20024;-77
2024/01/08 09:31:39;;;;;;;8.88;5.65;;;;;;;-0.06;76.01;103052.41;5086337;28;20076;-77
2024/01/08 09:34:05;;;;;;;8.57;5.32;;;;;;;-0.01;75.79;103059.56;5083351;28;20050;-78
2024/01/08 09:36:31;;;;;;;7.25;4.72;;;;;;;-0.07;75.62;103066.25;5069872;28;20085;-80
2024/01/08 09:38:56;;;;;;;7.80;5.78;;;;;;;-0.17;76.92;103067.59;5070070;28;20447;-76
2024/01/08 09:41:22;;;;;;;8.82;5.65;;;;;;;-0.20;78.19;103061.38;5086116;28;20024;-78
2024/01/08 09:43:47;;;;;;;9.45;5.93;;;;;;;-0.22;78.67;103065.66;5084632;28;20028;-79
2024/01/08 09:46:27;;;;;;;11.65;6.68;;;;;;;-0.17;79.09;103070.22;5068091;28;20044;-78
2024/01/08 09:48:54;;;;;;;9.38;6.10;;;;;;;-0.16;79.24;103065.88;5066090;28;20084;-78
2024/01/08 09:51:21;;;;;;;7.80;5.45;;;;;;;-0.09;78.81;103071.41;5080798;28;20020;-78
2024/01/08 09:53:46;;;;;;;7.72;6.00;;;;;;;-0.05;79.00;103069.78;5066069;28;20036;-78
2024/01/08 09:56:15;;;;;;;10.70;6.70;;;;;;;0.05;78.28;103068.44;5088344;28;20032;-78
2024/01/08 09:58:42;;;;;;;9.55;6.25;;;;;;;0.16;77.24;103070.63;5069913;28;20059;-78
2024/01/08 10:01:07;;;;;;;7.68;5.65;;;;;;;0.11;76.66;103071.28;5065739;28;20024;-78
2024/01/08 10:03:33;;;;;;;9.32;6.05;;;;;;;-0.04;76.71;103072.47;5082757;28;20036;-78
2024/01/08 10:05:58;;;;;;;8.38;5.60;;;;;;;-0.04;76.75;103074.19;5086805;28;20047;-78
2024/01/08 10:08:24;;;;;;;10.23;5.82;;;;;;;0.01;77.44;103072.66;5082904;28;20380;-78
2024/01/08 10:10:52;;;;;;;9.82;5.32;;;;;;;0.01;76.24;103059.66;5069099;28;20052;-79
2024/01/08 10:13:17;;;;;;;10.35;6.03;;;;;;;0.12;76.27;103070.44;5076854;28;20028;-79
2024/01/08 10:15:47;;;;;;;8.40;5.93;;;;;;;0.17;75.84;103068.91;5082749;28;20089;-78
2024/01/08 10:18:16;;;;;;;6.63;5.03;;;;;;;0.11;74.88;103060.88;5081064;28;21757;-79
2024/01/08 10:20:42;;;;;;;7.65;5.95;;;;;;;0.11;75.51;103073.88;5068299;28;20035;-78
2024/01/08 10:23:09;;;;;;;7.35;5.45;;;;;;;0.30;74.97;103057.28;5086632;28;20028;-78
2024/01/08 10:25:36;;;;;;;10.73;6.53;;;;;;;0.74;73.42;103064.97;5064722;28;20103;-79
2024/01/08 10:28:02;;;;;;;8.68;5.50;;;;;;;1.61;73.61;103058.38;5087727;28;20461;-78
2024/01/08 10:30:28;;;;;;;7.47;5.30;;;;;;;2.75;70.61;103059.25;5090566;28;20046;-77
2024/01/08 10:32:59;;;;;;;6.75;5.55;;;;;;;3.62;64.84;103050.16;5088323;28;20032;-78
2024/01/08 10:35:26;;;;;;;7.35;4.90;;;;;;;2.66;65.55;103051.16;5089680;28;20028;-79
2024/01/08 10:37:54;;;;;;;5.63;4.97;;;;;;;1.85;66.97;103055.69;5073693;28;20031;-78
2024/01/08 10:40:20;;;;;;;7.43;5.43;;;;;;;1.35;68.89;103055.78;5082696;28;20020;-78
2024/01/08 10:42:45;;;;;;;8.45;5.38;;;;;;;1.24;70.02;103059.78;5085083;28;21420;-79
2024/01/08 10:45:11;;;;;;;8.48;5.57;;;;;;;1.50;68.75;103053.72;5067340;28;20174;-78
2024/01/08 10:47:42;;;;;;;8.00;5.07;;;;;;;3.90;64.76;103042.94;5069329;28;20150;-78
2024/01/08 10:50:10;;;;;;;8.88;4.88;;;;;;;4.21;58.66;103036.66;5087225;28;20438;-78
2024/01/08 10:52:44;;;;;;;5.45;4.10;;;;;;;3.55;60.82;103025.59;5081633;28;20470;-79
2024/01/08 10:55:13;;;;;;;5.93;4.55;;;;;;;2.75;62.75;103033.13;5082915;28;20367;-78
2024/01/08 10:58:04;;;;;;;6.68;4.65;;;;;;;2.00;63.33;103038.75;5087677;28;20426;-78
2024/01/08 11:00:31;;;;;;;7.28;4.40;;;;;;;1.66;66.23;103039.44;5060023;28;20040;-78
2024/01/08 11:02:57;;;;;;;7.25;4.85;;;;;;;1.43;67.19;103033.47;5069387;28;20032;-78
2024/01/08 11:05:26;;;;;;;6.63;4.65;;;;;;;1.20;67.11;103039.66;5090799;28;20039;-78
2024/01/08 11:07:53;;;;;;;7.05;4.32;;;;;;;1.05;66.96;103026.13;5065060;28;20475;-80
2024/01/08 11:10:22;;;;;;;6.30;4.10;;;;;;;0.94;64.91;103033.56;5084513;28;20040;-80
2024/01/08 11:12:54;;;;;;;8.82;4.68;;;;;;;0.90;66.69;103027.38;5085802;28;20085;-79
2024/01/08 11:15:19;;;;;;;5.93;4.10;;;;;;;1.15;65.37;103030.81;5090688;28;20382;-79
2024/01/08 11:17:52;;;;;;;6.25;5.03;;;;;;;1.15;66.38;103025.59;5094190;28;20023;-79